PWSweather.com
Personal Weather Stations
Station Observations
SEVANL01
SevillaES 41004

SevillaES 41004

Lat: 37.383633, Lon: -5.985787

Elevation: 19.685

Station Type: Davis Vantage Pro2

Latest ConditionsUpdated 10:20:01 PM GMT+01:01 Friday, Dec 19, 2014
Currently Today's Max Today's Min Today's Average
Temperature 48.4°F9.1°C 61.0°F16.1°C 44.4°F6.9°C 51.5°F10.8°C
Dew Point 47.3°F8.5°C 51.5°F10.8°C 42.0°F5.6°C 46.9°F8.3°C
Winds Calm Calm 3.0 mph S4.8 kmh S - 0.8 mph 1.3 kmh
Wind Gusts 3.0 mph4.8 kmh 7.0 mph11.3 kmh - -
Humidity 96% 96% 69% 85%
Pressure 30.45 in1031.2 mb 30.47 in1031.8 mb 30.38 in1028.8 mb -
Precipitation - 0.01 in0.3 mm - -
Hour Temp Dew Point Humidity Winds Wind Gusts Pressure Precip Precip Rate Daily Precip Total
10:20 PM 48.4°F9.1°C 47.3°F8.5°C 96% Calm Calm 3.0 mph4.8 kmh 30.45 in1031.2 mb 0.00 in0.0 mm 0.00 in/hr0.0 mm/hr 0.01 in0.3 mm
10:00 PM 47.8°F8.8°C 46.8°F8.2°C 96% 1.0 mph S1.6 kmh S 4.0 mph6.4 kmh 30.45 in1031.2 mb 0.00 in0.0 mm 0.00 in/hr0.0 mm/hr 0.01 in0.3 mm
09:40 PM 48.4°F9.1°C 47.3°F8.5°C 96% 1.0 mph S1.6 kmh S 5.0 mph8.0 kmh 30.45 in1031.2 mb 0.00 in0.0 mm 0.00 in/hr0.0 mm/hr 0.01 in0.3 mm
09:20 PM 49.3°F9.6°C 48.2°F9.0°C 96% Calm Calm 2.0 mph3.2 kmh 30.45 in1031.2 mb 0.00 in0.0 mm 0.00 in/hr0.0 mm/hr 0.01 in0.3 mm
09:00 PM 49.3°F9.6°C 48.2°F9.0°C 96% Calm Calm 3.0 mph4.8 kmh 30.44 in1030.8 mb 0.00 in0.0 mm 0.00 in/hr0.0 mm/hr 0.01 in0.3 mm
08:40 PM 49.3°F9.6°C 47.9°F8.8°C 95% 2.0 mph S3.2 kmh S 5.0 mph8.0 kmh 30.43 in1030.5 mb 0.00 in0.0 mm 0.00 in/hr0.0 mm/hr 0.01 in0.3 mm
08:20 PM 49.6°F9.8°C 48.3°F9.1°C 95% 1.0 mph S1.6 kmh S 5.0 mph8.0 kmh 30.43 in1030.5 mb 0.00 in0.0 mm 0.00 in/hr0.0 mm/hr 0.01 in0.3 mm
08:00 PM 49.6°F9.8°C 48.3°F9.1°C 95% 1.0 mph S1.6 kmh S 5.0 mph8.0 kmh 30.43 in1030.5 mb 0.00 in0.0 mm 0.00 in/hr0.0 mm/hr 0.01 in0.3 mm
07:40 PM 50.4°F10.2°C 48.7°F9.3°C 94% Calm Calm 2.0 mph3.2 kmh 30.42 in1030.1 mb 0.00 in0.0 mm 0.00 in/hr0.0 mm/hr 0.01 in0.3 mm
07:20 PM 50.5°F10.3°C 48.9°F9.4°C 94% 2.0 mph S3.2 kmh S 6.0 mph9.7 kmh 30.42 in1030.1 mb 0.00 in0.0 mm 0.00 in/hr0.0 mm/hr 0.01 in0.3 mm
07:00 PM 50.7°F10.4°C 48.8°F9.3°C 93% 3.0 mph S4.8 kmh S 6.0 mph9.7 kmh 30.41 in1029.8 mb 0.00 in0.0 mm 0.00 in/hr0.0 mm/hr 0.01 in0.3 mm
06:40 PM 51.8°F11.0°C 49.3°F9.6°C 91% 2.0 mph S3.2 kmh S 7.0 mph11.3 kmh 30.41 in1029.8 mb 0.00 in0.0 mm 0.00 in/hr0.0 mm/hr 0.01 in0.3 mm
06:20 PM 54.1°F12.3°C 51.0°F10.6°C 89% 2.0 mph S3.2 kmh S 5.0 mph8.0 kmh 30.40 in1029.5 mb 0.00 in0.0 mm 0.00 in/hr0.0 mm/hr 0.01 in0.3 mm
06:00 PM 55.9°F13.3°C 51.5°F10.8°C 85% 2.0 mph S3.2 kmh S 7.0 mph11.3 kmh 30.40 in1029.5 mb 0.00 in0.0 mm 0.00 in/hr0.0 mm/hr 0.01 in0.3 mm
05:40 PM 58.1°F14.5°C 51.3°F10.7°C 78% 1.0 mph SW1.6 kmh SW 4.0 mph6.4 kmh 30.39 in1029.1 mb 0.00 in0.0 mm 0.00 in/hr0.0 mm/hr 0.01 in0.3 mm
05:20 PM 59.0°F15.0°C 51.4°F10.8°C 76% 1.0 mph SW1.6 kmh SW 4.0 mph6.4 kmh 30.39 in1029.1 mb 0.00 in0.0 mm 0.00 in/hr0.0 mm/hr 0.01 in0.3 mm
05:00 PM 59.7°F15.4°C 51.4°F10.8°C 74% 1.0 mph SW1.6 kmh SW 4.0 mph6.4 kmh 30.39 in1029.1 mb 0.00 in0.0 mm 0.00 in/hr0.0 mm/hr 0.01 in0.3 mm
04:40 PM 60.1°F15.6°C 51.0°F10.6°C 72% Calm Calm 5.0 mph8.0 kmh 30.39 in1029.1 mb 0.00 in0.0 mm 0.00 in/hr0.0 mm/hr 0.01 in0.3 mm
04:20 PM 60.1°F15.6°C 51.4°F10.8°C 73% 2.0 mph SW3.2 kmh SW 5.0 mph8.0 kmh 30.39 in1029.1 mb 0.00 in0.0 mm 0.00 in/hr0.0 mm/hr 0.01 in0.3 mm
04:00 PM 60.8°F16.0°C 50.6°F10.3°C 69% 1.0 mph SW1.6 kmh SW 5.0 mph8.0 kmh 30.39 in1029.1 mb 0.00 in0.0 mm 0.00 in/hr0.0 mm/hr 0.01 in0.3 mm
03:40 PM 61.0°F16.1°C 50.7°F10.4°C 69% Calm Calm 5.0 mph8.0 kmh 30.39 in1029.1 mb 0.00 in0.0 mm 0.00 in/hr0.0 mm/hr 0.01 in0.3 mm
03:20 PM 60.6°F15.9°C 50.8°F10.4°C 70% Calm Calm -- 30.39 in1029.1 mb 0.00 in0.0 mm 0.00 in/hr0.0 mm/hr 0.01 in0.3 mm
03:00 PM 59.5°F15.3°C 49.7°F9.8°C 70% Calm Calm -- 30.40 in1029.5 mb 0.00 in0.0 mm 0.00 in/hr0.0 mm/hr 0.01 in0.3 mm
02:40 PM 59.2°F15.1°C 50.2°F10.1°C 72% Calm Calm -- 30.41 in1029.8 mb 0.00 in0.0 mm 0.00 in/hr0.0 mm/hr 0.01 in0.3 mm
02:20 PM 58.6°F14.8°C 49.6°F9.8°C 72% Calm Calm -- 30.42 in1030.1 mb 0.00 in0.0 mm 0.00 in/hr0.0 mm/hr 0.01 in0.3 mm
02:00 PM 57.4°F14.1°C 49.2°F9.6°C 74% Calm Calm 1.0 mph1.6 kmh 30.43 in1030.5 mb 0.00 in0.0 mm 0.00 in/hr0.0 mm/hr 0.01 in0.3 mm
01:40 PM 55.8°F13.2°C 48.3°F9.1°C 76% Calm Calm -- 30.43 in1030.5 mb 0.00 in0.0 mm 0.00 in/hr0.0 mm/hr 0.01 in0.3 mm
01:21 PM 53.3°F11.8°C 47.0°F8.3°C 79% 1.0 mph NE1.6 kmh NE 5.0 mph8.0 kmh 30.46 in1031.5 mb 0.00 in0.0 mm 0.00 in/hr0.0 mm/hr 0.01 in0.3 mm
01:20 PM 54.8°F12.7°C 48.1°F8.9°C 78% 1.0 mph E1.6 kmh E 5.0 mph8.0 kmh 30.44 in1030.8 mb 0.00 in0.0 mm 0.00 in/hr0.0 mm/hr 0.01 in0.3 mm
01:19 PM 54.7°F12.6°C 48.3°F9.1°C 79% 1.0 mph E1.6 kmh E 5.0 mph8.0 kmh 30.44 in1030.8 mb 0.00 in0.0 mm 0.00 in/hr0.0 mm/hr 0.01 in0.3 mm
01:18 PM 54.6°F12.6°C 48.2°F9.0°C 79% 1.0 mph E1.6 kmh E 5.0 mph8.0 kmh 30.44 in1030.8 mb 0.00 in0.0 mm 0.00 in/hr0.0 mm/hr 0.01 in0.3 mm
01:17 PM 54.4°F12.4°C 47.7°F8.7°C 78% 1.0 mph E1.6 kmh E 5.0 mph8.0 kmh 30.44 in1030.8 mb 0.00 in0.0 mm 0.00 in/hr0.0 mm/hr 0.01 in0.3 mm
01:16 PM 54.4°F12.4°C 47.7°F8.7°C 78% 1.0 mph E1.6 kmh E 5.0 mph8.0 kmh 30.44 in1030.8 mb 0.00 in0.0 mm 0.00 in/hr0.0 mm/hr 0.01 in0.3 mm
01:15 PM 54.4°F12.4°C 47.7°F8.7°C 78% 1.0 mph E1.6 kmh E 5.0 mph8.0 kmh 30.44 in1030.8 mb 0.00 in0.0 mm 0.00 in/hr0.0 mm/hr 0.01 in0.3 mm
01:14 PM 54.4°F12.4°C 47.7°F8.7°C 78% 1.0 mph E1.6 kmh E 5.0 mph8.0 kmh 30.44 in1030.8 mb 0.00 in0.0 mm 0.00 in/hr0.0 mm/hr 0.01 in0.3 mm
01:13 PM 54.5°F12.5°C 47.8°F8.8°C 78% 1.0 mph E1.6 kmh E 5.0 mph8.0 kmh 30.44 in1030.8 mb 0.00 in0.0 mm 0.00 in/hr0.0 mm/hr 0.01 in0.3 mm
01:12 PM 54.6°F12.6°C 47.9°F8.8°C 78% 1.0 mph E1.6 kmh E 5.0 mph8.0 kmh 30.44 in1030.8 mb 0.00 in0.0 mm 0.00 in/hr0.0 mm/hr 0.01 in0.3 mm
01:11 PM 54.6°F12.6°C 47.9°F8.8°C 78% 1.0 mph E1.6 kmh E 5.0 mph8.0 kmh 30.45 in1031.2 mb 0.00 in0.0 mm 0.00 in/hr0.0 mm/hr 0.01 in0.3 mm
01:10 PM 54.6°F12.6°C 47.9°F8.8°C 78% 1.0 mph E1.6 kmh E 5.0 mph8.0 kmh 30.44 in1030.8 mb 0.00 in0.0 mm 0.00 in/hr0.0 mm/hr 0.01 in0.3 mm
01:09 PM 54.5°F12.5°C 48.1°F8.9°C 79% 1.0 mph E1.6 kmh E 5.0 mph8.0 kmh 30.45 in1031.2 mb 0.00 in0.0 mm 0.00 in/hr0.0 mm/hr 0.01 in0.3 mm
01:08 PM 54.3°F12.4°C 48.3°F9.1°C 80% 1.0 mph E1.6 kmh E 6.0 mph9.7 kmh 30.45 in1031.2 mb 0.00 in0.0 mm 0.00 in/hr0.0 mm/hr 0.01 in0.3 mm
01:07 PM 54.1°F12.3°C 48.1°F8.9°C 80% 1.0 mph E1.6 kmh E 6.0 mph9.7 kmh 30.45 in1031.2 mb 0.00 in0.0 mm 0.00 in/hr0.0 mm/hr 0.01 in0.3 mm
12:40 PM 53.2°F11.8°C 46.6°F8.1°C 78% Calm Calm 5.0 mph8.0 kmh 30.46 in1031.5 mb 0.00 in0.0 mm 0.00 in/hr0.0 mm/hr 0.01 in0.3 mm
12:20 PM 52.3°F11.3°C 46.4°F8.0°C 80% 1.0 mph NNE1.6 kmh NNE 4.0 mph6.4 kmh 30.46 in1031.5 mb 0.00 in0.0 mm 0.00 in/hr0.0 mm/hr 0.01 in0.3 mm
12:00 PM 51.8°F11.0°C 45.8°F7.7°C 80% Calm Calm -- 30.47 in1031.8 mb 0.00 in0.0 mm 0.00 in/hr0.0 mm/hr 0.01 in0.3 mm
11:40 AM 50.4°F10.2°C 45.4°F7.4°C 83% Calm Calm -- 30.47 in1031.8 mb 0.00 in0.0 mm 0.00 in/hr0.0 mm/hr 0.01 in0.3 mm
11:20 AM 48.7°F9.3°C 44.4°F6.9°C 85% Calm Calm 1.0 mph1.6 kmh 30.47 in1031.8 mb 0.00 in0.0 mm 0.00 in/hr0.0 mm/hr 0.01 in0.3 mm
11:00 AM 47.7°F8.7°C 44.0°F6.7°C 87% Calm Calm -- 30.47 in1031.8 mb 0.00 in0.0 mm 0.00 in/hr0.0 mm/hr 0.01 in0.3 mm
10:40 AM 46.4°F8.0°C 43.0°F6.1°C 88% 2.0 mph N3.2 kmh N 4.0 mph6.4 kmh 30.46 in1031.5 mb 0.00 in0.0 mm 0.00 in/hr0.0 mm/hr 0.01 in0.3 mm
10:20 AM 45.9°F7.7°C 42.5°F5.8°C 88% 1.0 mph NNW1.6 kmh NNW 5.0 mph8.0 kmh 30.45 in1031.2 mb 0.00 in0.0 mm 0.00 in/hr0.0 mm/hr 0.01 in0.3 mm
10:00 AM 45.9°F7.7°C 42.8°F6.0°C 89% 2.0 mph NNE3.2 kmh NNE 5.0 mph8.0 kmh 30.45 in1031.2 mb 0.00 in0.0 mm 0.00 in/hr0.0 mm/hr 0.01 in0.3 mm
09:40 AM 45.0°F7.2°C 42.2°F5.7°C 90% 1.0 mph NNE1.6 kmh NNE 4.0 mph6.4 kmh 30.44 in1030.8 mb 0.00 in0.0 mm 0.00 in/hr0.0 mm/hr 0.01 in0.3 mm
09:20 AM 45.0°F7.2°C 42.5°F5.8°C 91% Calm Calm 2.0 mph3.2 kmh 30.43 in1030.5 mb 0.00 in0.0 mm 0.00 in/hr0.0 mm/hr 0.01 in0.3 mm
09:00 AM 44.4°F6.9°C 42.0°F5.6°C 91% 1.0 mph NNE1.6 kmh NNE 4.0 mph6.4 kmh 30.43 in1030.5 mb 0.00 in0.0 mm 0.00 in/hr0.0 mm/hr 0.01 in0.3 mm
08:40 AM 44.4°F6.9°C 42.0°F5.6°C 91% Calm Calm -- 30.42 in1030.1 mb 0.00 in0.0 mm 0.00 in/hr0.0 mm/hr 0.01 in0.3 mm
08:20 AM 45.0°F7.2°C 42.5°F5.8°C 91% Calm Calm -- 30.42 in1030.1 mb 0.00 in0.0 mm 0.00 in/hr0.0 mm/hr 0.01 in0.3 mm
08:00 AM 45.0°F7.2°C 42.8°F6.0°C 92% 1.0 mph 1.6 kmh -- 30.41 in1029.8 mb 0.00 in0.0 mm 0.00 in/hr0.0 mm/hr 0.01 in0.3 mm
07:40 AM 45.0°F7.2°C 42.5°F5.8°C 91% Calm Calm -- 30.41 in1029.8 mb 0.00 in0.0 mm 0.00 in/hr0.0 mm/hr 0.01 in0.3 mm
07:20 AM 45.1°F7.3°C 42.7°F5.9°C 91% Calm Calm 4.0 mph6.4 kmh 30.41 in1029.8 mb 0.00 in0.0 mm 0.00 in/hr0.0 mm/hr 0.01 in0.3 mm
07:00 AM 45.1°F7.3°C 42.7°F5.9°C 91% Calm Calm -- 30.40 in1029.5 mb 0.00 in0.0 mm 0.00 in/hr0.0 mm/hr 0.01 in0.3 mm
06:40 AM 45.3°F7.4°C 42.8°F6.0°C 91% Calm Calm -- 30.39 in1029.1 mb 0.00 in0.0 mm 0.00 in/hr0.0 mm/hr 0.01 in0.3 mm
06:20 AM 45.5°F7.5°C 43.3°F6.3°C 92% 1.0 mph NNE1.6 kmh NNE 5.0 mph8.0 kmh 30.39 in1029.1 mb 0.00 in0.0 mm 0.00 in/hr0.0 mm/hr 0.01 in0.3 mm
06:00 AM 45.5°F7.5°C 43.3°F6.3°C 92% Calm Calm 3.0 mph4.8 kmh 30.39 in1029.1 mb 0.00 in0.0 mm 0.00 in/hr0.0 mm/hr 0.01 in0.3 mm
05:40 AM 45.7°F7.6°C 43.5°F6.4°C 92% Calm Calm -- 30.39 in1029.1 mb 0.00 in0.0 mm 0.00 in/hr0.0 mm/hr 0.01 in0.3 mm
05:20 AM 45.9°F7.7°C 43.4°F6.3°C 91% Calm Calm -- 30.39 in1029.1 mb 0.00 in0.0 mm 0.00 in/hr0.0 mm/hr 0.01 in0.3 mm
05:00 AM 46.0°F7.8°C 43.6°F6.4°C 91% 2.0 mph NNE3.2 kmh NNE 5.0 mph8.0 kmh 30.39 in1029.1 mb 0.00 in0.0 mm 0.00 in/hr0.0 mm/hr 0.01 in0.3 mm
04:40 AM 46.2°F7.9°C 43.7°F6.5°C 91% 1.0 mph NNE1.6 kmh NNE 6.0 mph9.7 kmh 30.39 in1029.1 mb 0.00 in0.0 mm 0.00 in/hr0.0 mm/hr 0.01 in0.3 mm
04:20 AM 46.4°F8.0°C 44.2°F6.8°C 92% Calm Calm -- 30.39 in1029.1 mb 0.00 in0.0 mm 0.00 in/hr0.0 mm/hr 0.01 in0.3 mm
04:00 AM 46.6°F8.1°C 44.7°F7.1°C 93% 1.0 mph NW1.6 kmh NW 6.0 mph9.7 kmh 30.39 in1029.1 mb 0.01 in0.3 mm 0.00 in/hr0.0 mm/hr 0.01 in0.3 mm
03:40 AM 46.9°F8.3°C 45.3°F7.4°C 94% Calm Calm -- 30.39 in1029.1 mb 0.01 in0.3 mm 0.00 in/hr0.0 mm/hr 0.01 in0.3 mm
03:20 AM 46.9°F8.3°C 45.3°F7.4°C 94% Calm Calm -- 30.39 in1029.1 mb 0.01 in0.3 mm 0.03 in/hr0.8 mm/hr 0.01 in0.3 mm
03:00 AM 47.5°F8.6°C 45.8°F7.7°C 94% Calm Calm 2.0 mph3.2 kmh 30.38 in1028.8 mb 0.00 in0.0 mm 0.00 in/hr0.0 mm/hr 0.00 in0.0 mm
02:40 AM 47.7°F8.7°C 46.3°F7.9°C 95% Calm Calm 2.0 mph3.2 kmh 30.38 in1028.8 mb 0.00 in0.0 mm 0.00 in/hr0.0 mm/hr 0.00 in0.0 mm
02:20 AM 48.0°F8.9°C 46.7°F8.2°C 95% Calm Calm -- 30.38 in1028.8 mb 0.00 in0.0 mm 0.00 in/hr0.0 mm/hr 0.00 in0.0 mm
02:00 AM 48.4°F9.1°C 47.0°F8.3°C 95% Calm Calm -- 30.38 in1028.8 mb 0.00 in0.0 mm 0.00 in/hr0.0 mm/hr 0.00 in0.0 mm
01:40 AM 48.4°F9.1°C 46.7°F8.2°C 94% Calm Calm -- 30.38 in1028.8 mb 0.00 in0.0 mm 0.00 in/hr0.0 mm/hr 0.00 in0.0 mm
01:20 AM 48.0°F8.9°C 46.7°F8.2°C 95% Calm Calm -- 30.38 in1028.8 mb 0.00 in0.0 mm 0.00 in/hr0.0 mm/hr 0.00 in0.0 mm
01:00 AM 48.4°F9.1°C 46.7°F8.2°C 94% Calm Calm -- 30.38 in1028.8 mb 0.00 in0.0 mm 0.00 in/hr0.0 mm/hr 0.00 in0.0 mm
12:40 AM 48.7°F9.3°C 46.8°F8.2°C 93% Calm Calm -- 30.39 in1029.1 mb 0.00 in0.0 mm 0.00 in/hr0.0 mm/hr 0.00 in0.0 mm
12:20 AM 49.5°F9.7°C 47.5°F8.6°C 93% Calm Calm -- 30.38 in1028.8 mb 0.00 in0.0 mm 0.00 in/hr0.0 mm/hr 0.00 in0.0 mm
12:00 AM 50.4°F10.2°C 48.4°F9.1°C 93% 1.0 mph NW1.6 kmh NW 3.0 mph4.8 kmh 30.38 in1028.8 mb 0.00 in0.0 mm 0.00 in/hr0.0 mm/hr 0.00 in0.0 mm